Time;durP1;ratioP1;P1;durP2;ratioP2;P2;SDS_P1;SDS_P2;PMS_P1;PMS_P2;Temp;Humidity;BMP_temperature;BMP_pressure;BME280_temperature;BME280_humidity;BME280_pressure;Samples;Min_cycle;Max_cycle;Signal;HPM_P1;HPM_P2
2022/08/28 00:01:03;;;;;;;26.70;23.80;;;;;;;18.30;100.00;156064.13;5072178;28;20581;-85
2022/08/28 00:03:31;;;;;;;27.63;24.00;;;;;;;18.33;100.00;156071.94;5070709;28;20842;-85
2022/08/28 00:05:59;;;;;;;28.30;23.40;;;;;;;18.33;100.00;156071.94;5070331;28;20460;-85
2022/08/28 00:08:27;;;;;;;26.13;22.50;;;;;;;18.32;100.00;156069.38;5070567;28;20438;-85
2022/08/28 00:10:54;;;;;;;24.80;22.07;;;;;;;18.31;100.00;156066.75;5070529;28;20452;-85
2022/08/28 00:13:24;;;;;;;26.20;22.57;;;;;;;18.30;100.00;156064.13;5072502;28;20429;-85
2022/08/28 00:15:54;;;;;;;26.20;23.40;;;;;;;18.30;100.00;156064.13;5071739;28;20504;-85
2022/08/28 00:18:21;;;;;;;28.10;22.77;;;;;;;18.27;100.00;156056.34;5071257;28;20485;-85
2022/08/28 00:20:50;;;;;;;27.50;24.23;;;;;;;18.25;100.00;156053.72;5053943;28;20481;-85
2022/08/28 00:23:18;;;;;;;29.63;24.53;;;;;;;18.27;100.00;156056.34;5070545;28;20461;-85
2022/08/28 00:25:45;;;;;;;24.93;22.07;;;;;;;18.31;100.00;156066.75;5070041;28;20456;-85
2022/08/28 00:28:12;;;;;;;26.50;23.30;;;;;;;18.31;100.00;156066.75;5071964;28;20763;-85
2022/08/28 00:30:41;;;;;;;27.20;23.20;;;;;;;18.31;100.00;156068.06;5070523;28;20494;-85
2022/08/28 00:33:10;;;;;;;27.93;24.93;;;;;;;18.30;100.00;156064.13;5070673;28;20918;-85
2022/08/28 00:35:37;;;;;;;26.80;23.60;;;;;;;18.33;100.00;156071.94;5071251;28;20476;-85
2022/08/28 00:38:04;;;;;;;31.20;23.30;;;;;;;18.35;100.00;156077.19;5072020;28;20530;-85
2022/08/28 00:40:33;;;;;;;27.87;23.50;;;;;;;18.30;100.00;156064.13;5071467;28;20466;-85
2022/08/28 00:43:00;;;;;;;25.50;22.77;;;;;;;18.29;100.00;156062.84;5070170;28;20454;-85
2022/08/28 00:45:28;;;;;;;28.60;22.30;;;;;;;18.29;100.00;156061.53;5070031;28;20445;-85
2022/08/28 00:47:55;;;;;;;28.10;23.80;;;;;;;18.29;100.00;156062.84;5070390;28;20471;-85
2022/08/28 00:50:24;;;;;;;27.43;23.67;;;;;;;18.27;100.00;156056.34;5071321;28;20433;-85
2022/08/28 00:52:54;;;;;;;27.97;22.47;;;;;;;18.25;100.00;156053.72;5071406;28;20781;-85
2022/08/28 00:55:23;;;;;;;28.00;25.00;;;;;;;18.26;100.00;156055.03;5069721;28;20533;-85
2022/08/28 00:57:54;;;;;;;25.70;22.43;;;;;;;18.25;100.00;156053.72;5070114;28;20501;-85
2022/08/28 01:00:24;;;;;;;24.90;21.90;;;;;;;18.25;100.00;156053.72;5071000;28;20476;-85
2022/08/28 01:02:51;;;;;;;27.93;23.23;;;;;;;18.23;100.00;156048.53;5071557;28;20434;-85
2022/08/28 01:05:19;;;;;;;26.83;23.93;;;;;;;18.24;100.00;156051.09;5071018;28;20826;-85
2022/08/28 01:07:46;;;;;;;27.37;24.40;;;;;;;18.21;100.00;156043.28;5070290;28;20836;-85
2022/08/28 01:10:17;;;;;;;27.93;24.93;;;;;;;18.20;100.00;156040.69;5071192;28;20429;-85
2022/08/28 01:12:44;;;;;;;26.70;22.80;;;;;;;18.23;100.00;156048.53;5071424;28;20425;-85
2022/08/28 01:15:16;;;;;;;28.30;23.90;;;;;;;18.22;100.00;156045.91;5069566;28;20434;-85
2022/08/28 01:17:47;;;;;;;24.73;21.47;;;;;;;18.20;100.00;156040.69;5071486;28;20446;-85
2022/08/28 01:20:19;;;;;;;28.57;23.50;;;;;;;18.22;100.00;156044.59;5070101;28;20465;-85
2022/08/28 01:22:52;;;;;;;24.30;21.73;;;;;;;18.22;100.00;156045.91;5071323;28;20472;-85
2022/08/28 01:25:23;;;;;;;23.63;19.87;;;;;;;18.23;100.00;156047.22;5070925;28;20537;-85
2022/08/28 01:27:50;;;;;;;23.67;20.93;;;;;;;18.22;100.00;156045.91;5071291;28;20479;-85
2022/08/28 01:30:20;;;;;;;25.03;22.20;;;;;;;18.21;100.00;156043.28;5074174;28;20422;-85
2022/08/28 01:32:49;;;;;;;24.40;21.27;;;;;;;18.20;100.00;156040.69;5073579;28;20498;-85
2022/08/28 01:35:19;;;;;;;23.63;21.13;;;;;;;18.22;100.00;156044.59;5073031;28;20441;-85
2022/08/28 01:37:46;;;;;;;26.03;22.60;;;;;;;18.20;100.00;156039.38;5073441;28;20437;-85
2022/08/28 01:40:17;;;;;;;27.10;23.20;;;;;;;18.17;100.00;156032.88;5073279;28;20533;-85
2022/08/28 01:42:45;;;;;;;25.03;22.33;;;;;;;18.16;100.00;156030.25;5073237;28;20515;-85
2022/08/28 01:45:15;;;;;;;25.07;22.37;;;;;;;18.11;100.00;156017.25;5072950;28;20629;-85
2022/08/28 01:47:43;;;;;;;25.80;22.10;;;;;;;18.08;100.00;156009.41;5107135;28;20956;-85
2022/08/28 01:50:12;;;;;;;26.77;22.30;;;;;;;18.06;100.00;156002.91;5073195;28;21039;-85
2022/08/28 01:52:39;;;;;;;26.17;22.23;;;;;;;18.03;100.00;155995.16;5089735;28;20453;-85
2022/08/28 01:55:07;;;;;;;26.70;21.90;;;;;;;18.04;100.00;155999.03;5072703;28;20533;-85
2022/08/28 01:57:34;;;;;;;25.93;22.27;;;;;;;18.00;100.00;155988.59;5056087;28;20465;-85
2022/08/28 02:00:02;;;;;;;25.17;22.00;;;;;;;18.01;100.00;155989.88;5073073;28;20620;-85
2022/08/28 02:02:38;;;;;;;24.50;21.40;;;;;;;17.99;100.00;155984.69;5074717;28;20441;-85
2022/08/28 02:05:06;;;;;;;26.80;22.00;;;;;;;17.97;100.00;155979.50;5072759;28;20529;-85
2022/08/28 02:07:32;;;;;;;25.17;22.37;;;;;;;17.95;100.00;155974.31;5072954;28;20438;-85
2022/08/28 02:09:59;;;;;;;27.50;23.77;;;;;;;17.96;100.00;155978.19;5072939;28;20433;-85
2022/08/28 02:12:26;;;;;;;27.23;23.30;;;;;;;17.94;100.00;155971.69;5074355;28;20422;-85
2022/08/28 02:14:53;;;;;;;26.87;22.87;;;;;;;17.91;100.00;155963.88;5072499;28;20438;-85
2022/08/28 02:17:21;;;;;;;26.17;22.53;;;;;;;17.91;100.00;155963.88;5074413;28;20453;-85
2022/08/28 02:19:48;;;;;;;27.17;22.90;;;;;;;17.91;100.00;155963.88;5074317;28;20521;-85
2022/08/28 02:22:15;;;;;;;29.40;22.17;;;;;;;17.91;100.00;155963.88;5073997;28;20470;-85
2022/08/28 02:24:41;;;;;;;30.70;24.57;;;;;;;17.94;100.00;155971.69;5073512;28;20430;-85
2022/08/28 02:27:08;;;;;;;27.07;23.20;;;;;;;17.87;100.00;155953.47;5072618;28;20761;-85
2022/08/28 02:29:35;;;;;;;29.27;24.00;;;;;;;17.90;100.00;155962.56;5072718;28;20998;-85
2022/08/28 02:32:04;;;;;;;27.00;23.60;;;;;;;17.91;100.00;155965.16;5072437;28;20544;-85
2022/08/28 02:34:32;;;;;;;29.03;23.47;;;;;;;17.92;100.00;155967.78;5073698;28;20430;-85
2022/08/28 02:36:59;;;;;;;27.37;23.40;;;;;;;17.92;100.00;155967.78;5073651;28;20904;-85
2022/08/28 02:39:26;;;;;;;28.03;23.27;;;;;;;17.93;100.00;155970.38;5072217;28;20438;-85
2022/08/28 02:41:53;;;;;;;30.13;23.23;;;;;;;17.93;100.00;155970.38;5072916;28;21063;-85
2022/08/28 02:44:19;;;;;;;28.60;25.13;;;;;;;17.92;100.00;155967.78;5073622;28;20426;-85
2022/08/28 02:46:46;;;;;;;29.23;24.40;;;;;;;17.93;100.00;155970.38;5073257;28;20461;-85
2022/08/28 02:49:13;;;;;;;28.90;25.83;;;;;;;17.94;100.00;155971.69;5072311;28;20862;-85
2022/08/28 02:51:41;;;;;;;31.93;23.90;;;;;;;17.93;100.00;155970.38;5073157;28;20858;-85
2022/08/28 02:54:08;;;;;;;27.97;23.40;;;;;;;17.95;100.00;155975.56;5073205;28;20453;-85
2022/08/28 02:56:34;;;;;;;29.70;23.90;;;;;;;17.95;100.00;155974.31;5072697;28;20564;-85
2022/08/28 02:59:01;;;;;;;29.80;23.00;;;;;;;17.95;100.00;155974.31;5071772;28;20944;-85
2022/08/28 03:01:28;;;;;;;26.53;22.13;;;;;;;17.96;100.00;155978.19;5054906;28;20483;-85
2022/08/28 03:03:54;;;;;;;29.67;24.73;;;;;;;18.02;100.00;155992.53;5071775;28;20445;-85
2022/08/28 03:06:21;;;;;;;29.87;24.30;;;;;;;17.95;100.00;155975.56;5072973;28;20438;-85
2022/08/28 03:08:49;;;;;;;27.20;24.27;;;;;;;17.99;100.00;155986.00;5071720;28;20496;-85
2022/08/28 03:11:16;;;;;;;27.93;23.27;;;;;;;17.97;100.00;155979.50;5073164;28;20838;-85
2022/08/28 03:13:43;;;;;;;27.63;23.53;;;;;;;18.00;100.00;155988.59;5072685;28;20533;-85
2022/08/28 03:16:10;;;;;;;29.93;24.37;;;;;;;17.96;100.00;155976.88;5071028;28;20549;-85
2022/08/28 03:18:37;;;;;;;26.50;23.07;;;;;;;17.97;100.00;155980.81;5071451;28;20441;-85
2022/08/28 03:21:04;;;;;;;26.67;22.70;;;;;;;17.96;100.00;155978.19;5105341;28;20466;-85
2022/08/28 03:23:30;;;;;;;26.80;22.10;;;;;;;17.97;100.00;155979.50;5071365;28;20422;-85
2022/08/28 03:26:00;;;;;;;26.37;22.50;;;;;;;18.01;100.00;155991.22;5071129;28;20450;-85
2022/08/28 03:28:28;;;;;;;26.50;20.30;;;;;;;17.98;100.00;155983.38;5072523;28;20427;-85
2022/08/28 03:30:56;;;;;;;26.37;22.13;;;;;;;17.97;100.00;155980.81;5072689;28;20465;-85
2022/08/28 03:33:25;;;;;;;27.10;22.30;;;;;;;17.98;100.00;155982.06;5072365;28;20440;-85
2022/08/28 03:35:52;;;;;;;30.63;22.93;;;;;;;17.98;100.00;155983.38;5070912;28;20805;-85
2022/08/28 03:38:20;;;;;;;29.20;24.20;;;;;;;17.98;100.00;155983.38;5072329;28;20430;-85
2022/08/28 03:40:47;;;;;;;31.70;24.37;;;;;;;17.98;100.00;155983.38;5070986;28;20464;-85
2022/08/28 03:43:18;;;;;;;27.50;22.80;;;;;;;18.01;100.00;155989.88;5071251;28;20434;-85
2022/08/28 03:45:52;;;;;;;26.43;22.60;;;;;;;17.98;100.00;155983.38;5070601;28;20458;-85
2022/08/28 03:48:19;;;;;;;28.27;22.47;;;;;;;17.98;100.00;155983.38;5070909;28;20428;-84
2022/08/28 03:50:46;;;;;;;28.90;23.87;;;;;;;18.01;100.00;155991.22;5071511;28;20442;-85
2022/08/28 03:53:13;;;;;;;26.73;22.27;;;;;;;17.97;100.00;155980.81;5071153;28;20553;-85
2022/08/28 03:55:40;;;;;;;28.00;22.10;;;;;;;17.98;100.00;155982.06;5071613;28;20434;-84
2022/08/28 03:58:08;;;;;;;25.23;22.63;;;;;;;17.97;100.00;155980.81;5070924;28;20476;-84
2022/08/28 04:00:36;;;;;;;27.90;23.10;;;;;;;17.96;100.00;155978.19;5070830;28;20499;-85
2022/08/28 04:03:03;;;;;;;26.87;22.73;;;;;;;17.96;100.00;155978.19;5071880;28;20501;-85
2022/08/28 04:05:29;;;;;;;31.30;22.90;;;;;;;17.99;100.00;155984.69;5070296;28;20450;-85
2022/08/28 04:07:56;;;;;;;29.60;23.87;;;;;;;17.98;100.00;155982.06;5070672;28;20430;-85
2022/08/28 04:10:23;;;;;;;27.40;22.30;;;;;;;17.99;100.00;155986.00;5072125;28;20436;-85
2022/08/28 04:12:50;;;;;;;25.10;21.50;;;;;;;18.00;100.00;155988.59;5071841;28;20437;-85
2022/08/28 04:15:17;;;;;;;27.27;22.67;;;;;;;18.00;100.00;155988.59;5070718;28;20487;-85
2022/08/28 04:17:44;;;;;;;28.33;23.57;;;;;;;18.03;100.00;155996.41;5071845;28;20436;-85
2022/08/28 04:20:11;;;;;;;25.00;22.17;;;;;;;17.95;100.00;155975.56;5070796;28;20449;-85
2022/08/28 04:22:38;;;;;;;23.70;20.73;;;;;;;17.93;100.00;155970.38;5072126;28;20913;-84
2022/08/28 04:25:06;;;;;;;25.43;22.50;;;;;;;17.94;100.00;155973.00;5070057;28;20434;-85
2022/08/28 04:27:33;;;;;;;27.07;21.77;;;;;;;17.91;100.00;155963.88;5072176;28;20438;-85
2022/08/28 04:30:00;;;;;;;26.67;20.93;;;;;;;17.92;100.00;155967.78;5071680;28;20514;-84
2022/08/28 04:32:27;;;;;;;23.33;20.33;;;;;;;17.90;100.00;155961.25;5070689;28;20434;-84
2022/08/28 04:34:55;;;;;;;27.67;21.00;;;;;;;17.90;100.00;155962.56;5070686;28;20442;-84
2022/08/28 04:37:22;;;;;;;27.10;21.40;;;;;;;17.91;100.00;155965.16;5070286;28;20441;-85
2022/08/28 04:39:49;;;;;;;26.77;21.40;;;;;;;17.94;100.00;155973.00;5070442;28;20776;-85
2022/08/28 04:42:15;;;;;;;29.70;22.20;;;;;;;17.91;100.00;155965.16;5070421;28;20458;-85
2022/08/28 04:44:42;;;;;;;26.17;21.63;;;;;;;17.87;100.00;155954.72;5071419;28;20444;-85
2022/08/28 04:47:09;;;;;;;25.07;20.50;;;;;;;17.92;100.00;155966.50;5071631;28;20951;-85
2022/08/28 04:49:36;;;;;;;25.67;22.40;;;;;;;17.88;100.00;155956.03;5069920;28;20478;-84
2022/08/28 04:52:05;;;;;;;28.17;22.90;;;;;;;17.86;100.00;155952.16;5070409;28;20434;-84
2022/08/28 04:54:32;;;;;;;27.00;22.50;;;;;;;17.83;100.00;155943.03;5070395;28;20477;-84
2022/08/28 04:56:59;;;;;;;25.83;21.10;;;;;;;17.85;100.00;155948.22;5069688;28;20543;-85
2022/08/28 04:59:25;;;;;;;27.00;22.10;;;;;;;17.87;100.00;155954.72;5071227;28;20980;-85
2022/08/28 05:01:52;;;;;;;29.07;22.63;;;;;;;17.84;100.00;155946.97;5053516;28;21024;-85
2022/08/28 05:04:19;;;;;;;27.80;21.60;;;;;;;17.85;100.00;155949.53;5072986;28;20446;-85
2022/08/28 05:06:46;;;;;;;26.90;22.00;;;;;;;17.83;100.00;155944.34;5075367;28;20434;-85
2022/08/28 05:09:17;;;;;;;32.20;22.57;;;;;;;17.81;100.00;155939.16;5075134;28;20824;-85
2022/08/28 05:11:44;;;;;;;26.47;22.30;;;;;;;17.78;100.00;155931.31;5073858;28;20458;-85
2022/08/28 05:14:11;;;;;;;25.10;21.80;;;;;;;17.80;100.00;155936.53;5073820;28;20430;-85
2022/08/28 05:16:42;;;;;;;26.70;22.87;;;;;;;17.84;100.00;155945.66;5073432;28;20830;-85
2022/08/28 05:19:09;;;;;;;27.50;23.33;;;;;;;17.76;100.00;155926.13;5073611;28;20528;-85
2022/08/28 05:21:36;;;;;;;31.00;22.17;;;;;;;17.80;100.00;155935.22;5073715;28;20465;-84
2022/08/28 05:24:03;;;;;;;28.13;21.60;;;;;;;17.79;100.00;155933.91;5073908;28;20441;-85
2022/08/28 05:26:33;;;;;;;27.83;21.70;;;;;;;17.76;100.00;155924.81;5073539;28;20541;-85
2022/08/28 05:28:59;;;;;;;22.60;20.20;;;;;;;17.78;100.00;155931.31;5074886;28;20859;-84
2022/08/28 05:31:28;;;;;;;24.10;20.30;;;;;;;17.75;100.00;155923.50;5075004;28;20765;-85
2022/08/28 05:33:55;;;;;;;24.00;20.67;;;;;;;17.76;100.00;155924.81;5073742;28;20958;-85
2022/08/28 05:36:23;;;;;;;26.63;20.97;;;;;;;17.81;100.00;155939.16;5074614;28;20528;-85
2022/08/28 05:38:51;;;;;;;23.83;20.33;;;;;;;17.75;100.00;155923.50;5073686;28;20446;-84
2022/08/28 05:41:19;;;;;;;26.40;21.00;;;;;;;17.80;100.00;155936.53;5074920;28;20820;-85
2022/08/28 05:43:47;;;;;;;26.87;20.03;;;;;;;17.78;100.00;155931.31;5074638;28;20436;-85
2022/08/28 05:46:15;;;;;;;24.63;21.47;;;;;;;17.80;100.00;155935.22;5073055;28;20548;-85
2022/08/28 05:48:44;;;;;;;26.77;20.33;;;;;;;17.86;100.00;155950.84;5073090;28;20476;-85
2022/08/28 05:51:13;;;;;;;25.20;20.97;;;;;;;17.97;100.00;155979.50;5058157;28;20462;-84
2022/08/28 05:53:42;;;;;;;27.83;20.97;;;;;;;17.97;100.00;155980.81;5069831;28;20537;-84
2022/08/28 05:56:10;;;;;;;26.93;21.10;;;;;;;17.91;100.00;155965.16;5052812;28;20564;-84
2022/08/28 05:58:39;;;;;;;26.90;21.40;;;;;;;17.90;100.00;155961.25;5069666;28;20439;-85
2022/08/28 06:01:10;;;;;;;27.73;21.33;;;;;;;17.91;100.00;155963.88;5054499;28;20435;-84
2022/08/28 06:03:38;;;;;;;25.27;20.63;;;;;;;17.88;100.00;155957.34;5052819;28;20470;-85
2022/08/28 06:06:05;;;;;;;26.70;22.30;;;;;;;17.90;100.00;155961.25;5058394;28;20799;-84
2022/08/28 06:08:32;;;;;;;25.07;20.50;;;;;;;17.89;100.00;155958.66;5072779;28;20441;-85
2022/08/28 06:11:00;;;;;;;25.47;21.60;;;;;;;17.89;100.00;155959.97;5072771;28;20442;-85
2022/08/28 06:13:27;;;;;;;26.60;21.37;;;;;;;17.98;100.00;155982.06;5072861;28;20921;-85
2022/08/28 06:15:54;;;;;;;25.13;20.47;;;;;;;17.95;100.00;155975.56;5072762;28;20469;-85
2022/08/28 06:18:22;;;;;;;23.33;20.13;;;;;;;17.96;100.00;155978.19;5072827;28;20445;-85
2022/08/28 06:20:49;;;;;;;27.87;21.30;;;;;;;17.98;100.00;155983.38;5072587;28;20449;-85
2022/08/28 06:23:19;;;;;;;24.73;20.37;;;;;;;18.06;100.00;156002.91;5072417;28;20470;-85
2022/08/28 06:25:47;;;;;;;26.20;21.80;;;;;;;18.05;100.00;156001.66;5073602;28;20434;-84
2022/08/28 06:28:17;;;;;;;25.13;22.43;;;;;;;18.04;100.00;155999.03;5072613;28;20430;-84
2022/08/28 06:30:44;;;;;;;26.13;20.17;;;;;;;18.03;100.00;155996.41;5073728;28;20480;-84
2022/08/28 06:33:12;;;;;;;25.00;20.57;;;;;;;18.01;100.00;155991.22;5072365;28;20533;-84
2022/08/28 06:35:42;;;;;;;24.00;19.60;;;;;;;18.12;100.00;156018.56;5071917;28;20438;-84
2022/08/28 06:38:09;;;;;;;23.50;20.83;;;;;;;18.08;100.00;156008.16;5072488;28;20461;-85
2022/08/28 06:40:40;;;;;;;24.90;19.67;;;;;;;18.10;100.00;156013.34;5073440;28;20426;-85
2022/08/28 06:43:07;;;;;;;21.97;18.57;;;;;;;18.12;100.00;156019.88;5072096;28;20465;-85
2022/08/28 06:45:34;;;;;;;27.97;19.77;;;;;;;18.10;100.00;156014.66;5072074;28;20434;-84
2022/08/28 06:48:01;;;;;;;22.33;19.43;;;;;;;18.10;100.00;156013.34;5072333;28;20434;-84
2022/08/28 06:50:28;;;;;;;23.43;20.13;;;;;;;18.12;100.00;156019.88;5056100;28;20435;-85
2022/08/28 06:52:57;;;;;;;23.00;19.70;;;;;;;18.12;100.00;156019.88;5053711;28;20423;-85
2022/08/28 06:55:24;;;;;;;23.67;20.20;;;;;;;18.14;100.00;156025.06;5051960;28;20937;-84
2022/08/28 06:57:51;;;;;;;23.23;19.80;;;;;;;18.15;100.00;156027.69;5064875;28;20927;-84
2022/08/28 07:00:18;;;;;;;22.63;18.73;;;;;;;18.18;100.00;156034.19;5071742;28;20434;-84
2022/08/28 07:02:45;;;;;;;20.33;17.63;;;;;;;18.22;100.00;156044.59;5073118;28;20539;-84
2022/08/28 07:05:12;;;;;;;21.97;18.10;;;;;;;18.18;100.00;156034.19;5072909;28;20825;-85
2022/08/28 07:07:39;;;;;;;23.93;18.30;;;;;;;18.20;100.00;156040.69;5071795;28;20450;-85
2022/08/28 07:10:08;;;;;;;23.83;19.23;;;;;;;18.21;100.00;156043.28;5071701;28;20422;-84
2022/08/28 07:12:34;;;;;;;21.90;17.87;;;;;;;18.22;100.00;156044.59;5072187;28;20434;-84
2022/08/28 07:15:02;;;;;;;23.30;18.27;;;;;;;18.22;100.00;156044.59;5071363;28;20496;-84
2022/08/28 07:17:29;;;;;;;23.50;18.00;;;;;;;18.29;100.00;156062.84;5088354;28;20438;-84
2022/08/28 07:19:56;;;;;;;19.00;17.00;;;;;;;18.24;100.00;156051.09;5072710;28;20521;-84
2022/08/28 07:22:23;;;;;;;18.60;16.60;;;;;;;18.27;100.00;156056.34;5071535;28;20470;-85
2022/08/28 07:24:49;;;;;;;20.27;16.63;;;;;;;18.36;100.00;156079.75;5071339;28;20436;-85
2022/08/28 07:27:17;;;;;;;23.10;17.63;;;;;;;18.34;100.00;156074.56;5071205;28;20450;-85
2022/08/28 07:29:44;;;;;;;18.90;16.10;;;;;;;18.42;100.00;156096.72;5072560;28;20951;-85
2022/08/28 07:32:12;;;;;;;22.07;17.77;;;;;;;18.49;100.00;156113.66;5072312;28;20978;-85
2022/08/28 07:34:40;;;;;;;20.23;17.20;;;;;;;18.49;100.00;156113.66;5071326;28;20477;-85
2022/08/28 07:37:07;;;;;;;22.40;17.70;;;;;;;18.55;100.00;156129.31;5071023;28;20442;-85
2022/08/28 07:39:34;;;;;;;20.20;18.00;;;;;;;18.55;100.00;156129.31;5072366;28;20426;-85
2022/08/28 07:42:00;;;;;;;23.70;19.07;;;;;;;18.59;100.00;156139.72;5071166;28;20549;-85
2022/08/28 07:47:13;;;;;;;24.33;18.50;;;;;;;18.66;100.00;156158.00;5087648;28;20563;-85
2022/08/28 07:49:40;;;;;;;24.43;18.27;;;;;;;18.63;100.00;156150.16;5071695;28;20533;-85
2022/08/28 07:52:08;;;;;;;22.90;18.80;;;;;;;18.68;100.00;156163.19;5072568;28;20790;-85
2022/08/28 07:54:35;;;;;;;22.13;18.17;;;;;;;18.66;100.00;156158.00;5070909;28;20436;-85
2022/08/28 07:57:02;;;;;;;22.43;20.03;;;;;;;18.67;100.00;156161.88;5070350;28;20465;-85
2022/08/28 07:59:31;;;;;;;19.77;15.87;;;;;;;18.66;100.00;156158.00;5070913;28;20442;-85
2022/08/28 08:01:57;;;;;;;18.73;16.20;;;;;;;18.81;100.00;156198.38;5070948;28;20450;-85
2022/08/28 08:04:25;;;;;;;19.47;16.83;;;;;;;18.78;100.00;156189.22;5070733;28;20480;-85
2022/08/28 08:06:52;;;;;;;21.50;17.80;;;;;;;18.68;100.00;156163.19;5070397;28;20446;-85
2022/08/28 08:09:21;;;;;;;18.87;16.67;;;;;;;18.69;100.00;156167.06;5072264;28;20438;-85
2022/08/28 08:11:49;;;;;;;20.50;18.50;;;;;;;18.70;100.00;156169.69;5072451;28;20839;-85
2022/08/28 08:14:16;;;;;;;19.10;16.63;;;;;;;18.80;100.00;156194.44;5071940;28;20438;-85
2022/08/28 08:16:45;;;;;;;18.07;16.17;;;;;;;18.89;100.00;156216.59;5053431;28;20438;-85
2022/08/28 08:19:13;;;;;;;20.20;16.83;;;;;;;18.85;100.00;156208.78;5070486;28;20776;-85
2022/08/28 08:21:41;;;;;;;18.90;16.70;;;;;;;18.91;100.00;156223.09;5070605;28;20464;-84
2022/08/28 08:24:08;;;;;;;20.83;16.90;;;;;;;18.95;100.00;156233.56;5070471;28;20489;-85
2022/08/28 08:26:34;;;;;;;18.47;16.17;;;;;;;18.98;100.00;156241.38;5071541;28;20924;-85
2022/08/28 08:29:01;;;;;;;21.50;17.40;;;;;;;19.03;100.00;156254.41;5071812;28;20875;-85
2022/08/28 08:31:31;;;;;;;17.37;15.57;;;;;;;19.14;100.00;156283.03;5071844;28;20482;-85
2022/08/28 08:34:01;;;;;;;19.53;17.20;;;;;;;19.23;100.00;156306.53;5070493;28;20438;-85
2022/08/28 08:36:28;;;;;;;18.80;16.87;;;;;;;19.39;100.00;156348.28;5071737;28;20952;-85
2022/08/28 08:38:55;;;;;;;18.93;16.30;;;;;;;19.50;100.00;156374.34;5071397;28;20541;-85
2022/08/28 08:41:25;;;;;;;17.43;15.47;;;;;;;19.60;100.00;156400.41;5076142;28;20778;-85
2022/08/28 08:43:56;;;;;;;20.20;16.27;;;;;;;19.65;100.00;156414.75;5075768;28;20968;-85
2022/08/28 08:46:32;;;;;;;18.73;16.83;;;;;;;19.64;100.00;156410.84;5075588;28;20527;-84
2022/08/28 08:49:02;;;;;;;16.37;14.77;;;;;;;19.72;100.00;156433.03;5075953;28;20434;-84
2022/08/28 08:51:39;;;;;;;18.37;15.83;;;;;;;19.78;100.00;156448.63;5075845;28;20434;-84
2022/08/28 08:54:10;;;;;;;19.67;17.00;;;;;;;19.68;100.00;156421.25;5076341;28;20446;-84
2022/08/28 08:56:36;;;;;;;17.20;15.40;;;;;;;19.71;100.00;156429.09;5074963;28;20509;-85
2022/08/28 08:59:05;;;;;;;17.20;15.37;;;;;;;19.79;100.00;156451.28;5075872;28;20430;-85
2022/08/28 09:01:37;;;;;;;15.87;14.23;;;;;;;19.86;100.00;156468.19;5074110;28;20453;-85
2022/08/28 09:04:13;;;;;;;19.30;15.10;;;;;;;19.88;100.00;156473.44;5074434;28;20569;-85
2022/08/28 09:06:44;;;;;;;15.57;13.97;;;;;;;19.97;100.00;156498.19;5073975;28;20437;-84
2022/08/28 09:09:18;;;;;;;15.53;14.00;;;;;;;20.07;100.00;156522.94;5074070;28;20520;-85
2022/08/28 09:11:49;;;;;;;16.60;14.60;;;;;;;20.16;100.00;156546.44;5074096;28;20437;-83
2022/08/28 09:14:20;;;;;;;16.63;14.80;;;;;;;20.41;100.00;156611.69;5075380;28;20520;-85
2022/08/28 09:16:47;;;;;;;16.20;14.10;;;;;;;20.59;100.00;156658.69;5073755;28;20846;-85
2022/08/28 09:19:19;;;;;;;16.57;14.97;;;;;;;20.50;100.00;156635.19;5073770;28;20448;-85
2022/08/28 09:21:47;;;;;;;15.80;14.00;;;;;;;20.45;100.00;156622.16;5075232;28;20499;-85
2022/08/28 09:24:20;;;;;;;15.43;13.93;;;;;;;20.53;100.00;156643.03;5073581;28;20493;-85
2022/08/28 09:26:56;;;;;;;15.10;13.60;;;;;;;20.65;100.00;156674.31;5074617;28;20560;-85
2022/08/28 09:29:27;;;;;;;15.10;13.60;;;;;;;20.69;100.00;156682.16;5075161;28;20789;-84
2022/08/28 09:31:54;;;;;;;15.43;13.83;;;;;;;20.71;100.00;156687.34;5074859;28;20438;-85
2022/08/28 09:34:30;;;;;;;16.23;12.70;;;;;;;20.84;100.00;156722.59;5074870;28;20847;-85
2022/08/28 09:36:58;;;;;;;15.27;13.27;;;;;;;20.67;100.00;156676.94;5073185;28;20445;-85
2022/08/28 09:39:28;;;;;;;14.13;12.73;;;;;;;20.76;100.00;156701.72;5074847;28;20434;-85
2022/08/28 09:44:55;;;;;;;15.30;13.80;;;;;;;21.03;100.00;156772.19;5073318;28;20860;-83
2022/08/28 09:47:43;;;;;;;15.53;14.00;;;;;;;21.11;100.00;156791.81;5072866;28;20452;-83
2022/08/28 09:50:19;;;;;;;14.63;13.23;;;;;;;21.14;100.00;156799.63;5053271;28;20489;-83
2022/08/28 09:52:46;;;;;;;14.23;12.10;;;;;;;21.46;100.00;156881.88;5036752;28;20449;-85
2022/08/28 09:55:20;;;;;;;12.80;11.50;;;;;;;21.67;100.00;156938.00;5053127;28;20525;-83
2022/08/28 09:57:47;;;;;;;13.17;11.77;;;;;;;21.75;98.58;156958.91;5052770;28;20744;-85
2022/08/28 10:00:14;;;;;;;13.23;11.93;;;;;;;21.74;93.44;156954.94;5054275;28;20455;-83
2022/08/28 10:02:46;;;;;;;11.83;10.70;;;;;;;21.75;94.67;156958.91;5053003;28;20454;-85
2022/08/28 10:05:16;;;;;;;12.37;11.17;;;;;;;22.00;94.99;157021.63;5069371;28;20488;-85
2022/08/28 10:07:48;;;;;;;12.20;11.20;;;;;;;22.13;93.48;157056.88;5074106;28;20509;-85
2022/08/28 10:10:28;;;;;;;11.20;10.10;;;;;;;22.32;92.18;157106.47;5074202;28;20415;-85
2022/08/28 10:13:03;;;;;;;13.10;11.80;;;;;;;22.31;89.75;157102.59;5074112;28;20415;-83
2022/08/28 10:15:35;;;;;;;12.57;11.37;;;;;;;22.16;89.41;157064.69;5072688;28;20512;-86
2022/08/28 10:18:20;;;;;;;11.97;10.73;;;;;;;21.77;89.67;156964.09;5073979;28;20418;-83
2022/08/28 10:20:54;;;;;;;14.13;10.17;;;;;;;21.61;91.14;156922.31;5073992;28;20496;-85
2022/08/28 10:23:28;;;;;;;12.63;11.33;;;;;;;21.54;93.23;156904.06;5073359;28;20466;-85
2022/08/28 10:26:01;;;;;;;12.17;10.80;;;;;;;21.61;93.25;156922.31;5074264;28;20434;-85
2022/08/28 10:28:35;;;;;;;12.23;11.03;;;;;;;21.56;95.19;156907.97;5072304;28;20930;-85
2022/08/28 10:31:10;;;;;;;14.00;11.23;;;;;;;21.52;94.16;156898.84;5074036;28;20458;-85
2022/08/28 10:33:47;;;;;;;13.60;12.23;;;;;;;21.39;94.88;156864.91;5073776;28;20418;-85
2022/08/28 10:36:19;;;;;;;13.33;11.57;;;;;;;21.35;93.58;156854.44;5074091;28;20434;-85
2022/08/28 10:38:49;;;;;;;13.40;12.10;;;;;;;21.39;93.80;156864.91;5105866;28;20445;-84
2022/08/28 10:41:19;;;;;;;13.60;12.10;;;;;;;21.42;91.90;156872.72;5073895;28;20905;-84
2022/08/28 10:43:48;;;;;;;12.93;11.73;;;;;;;21.55;91.80;156906.66;5072571;28;20465;-83
2022/08/28 10:46:18;;;;;;;12.80;11.30;;;;;;;21.56;93.03;156909.28;5072180;28;20884;-85
2022/08/28 10:48:47;;;;;;;11.80;10.50;;;;;;;21.89;92.88;156994.19;5053930;28;20467;-85
2022/08/28 10:51:18;;;;;;;14.43;11.73;;;;;;;21.96;89.33;157012.47;5052412;28;20485;-85
2022/08/28 10:53:49;;;;;;;12.20;11.00;;;;;;;22.12;89.52;157054.25;5052065;28;20837;-85
2022/08/28 10:56:17;;;;;;;13.10;11.80;;;;;;;21.78;89.68;156966.75;5067000;28;20570;-85
2022/08/28 10:58:47;;;;;;;12.87;11.63;;;;;;;21.67;90.50;156938.00;5071473;28;20433;-85
2022/08/28 11:01:22;;;;;;;11.67;10.57;;;;;;;21.66;91.25;156934.06;5071507;28;20833;-86
2022/08/28 11:03:51;;;;;;;12.73;10.83;;;;;;;21.77;88.02;156964.09;5072016;28;20827;-86
2022/08/28 11:06:27;;;;;;;12.13;10.87;;;;;;;21.82;89.73;156977.16;5055085;28;20456;-86
2022/08/28 11:08:56;;;;;;;11.43;10.33;;;;;;;21.92;86.88;157000.72;5071372;28;20438;-86
2022/08/28 11:11:42;;;;;;;11.40;10.20;;;;;;;22.07;86.84;157039.88;5073148;28;20772;-85
2022/08/28 11:14:09;;;;;;;10.33;9.33;;;;;;;21.95;85.57;157008.56;5071546;28;20426;-86